Armour, South Dakota
Current Conditions -  °F | °C
As of 12:53 PM on Sunday 23 Nov 2014 (Local Time) from KMHE Reporting Station
Overcast Overcast  
Wind Chill: 36°   Ceiling: 4500
Heat Index: 45°   Visibility: 10mi
Dew Point: 31°   Wind: 24mph
Humidity: 58%   Direction: 310°NW
Pressure: 29.57"   Gusts: NA
Location:  43.32°N, 98.35°W
Report Text: KMHE 231853Z AUTO 31021KT 10SM OVC045 07/M01 A2957 RMK AO2 SLP021 T00721006 TSNO $
Loading
Personal Weather Stations






























Interactive Weather Map New forecast layout! Learn more

10-Day Weather Forecast

Advertisements
Track Severe Weather on mobile